sensor_id;sensor_type;location;lat;lon;timestamp;temperature;humidity
19214;DHT22;9741;51.020;5.304;2024-01-30T00:01:14;8.20;67.80
19214;DHT22;9741;51.020;5.304;2024-01-30T00:03:41;8.20;67.80
19214;DHT22;9741;51.020;5.304;2024-01-30T00:06:08;8.20;67.80
19214;DHT22;9741;51.020;5.304;2024-01-30T00:08:35;8.20;67.80
19214;DHT22;9741;51.020;5.304;2024-01-30T00:11:02;8.20;67.80
19214;DHT22;9741;51.020;5.304;2024-01-30T00:13:29;8.20;67.80
19214;DHT22;9741;51.020;5.304;2024-01-30T00:15:57;8.10;67.80
19214;DHT22;9741;51.020;5.304;2024-01-30T00:18:24;8.10;67.80
19214;DHT22;9741;51.020;5.304;2024-01-30T00:20:52;8.10;67.80
19214;DHT22;9741;51.020;5.304;2024-01-30T00:23:20;8.10;67.90
19214;DHT22;9741;51.020;5.304;2024-01-30T00:25:47;8.10;67.90
19214;DHT22;9741;51.020;5.304;2024-01-30T00:28:14;8.00;67.80
19214;DHT22;9741;51.020;5.304;2024-01-30T00:30:41;8.00;67.80
19214;DHT22;9741;51.020;5.304;2024-01-30T00:33:10;8.10;68.00
19214;DHT22;9741;51.020;5.304;2024-01-30T00:35:37;8.10;68.10
19214;DHT22;9741;51.020;5.304;2024-01-30T00:38:04;8.10;68.00
19214;DHT22;9741;51.020;5.304;2024-01-30T00:40:33;8.10;68.10
19214;DHT22;9741;51.020;5.304;2024-01-30T00:43:00;8.10;68.00
19214;DHT22;9741;51.020;5.304;2024-01-30T00:45:27;8.20;68.20
19214;DHT22;9741;51.020;5.304;2024-01-30T00:47:57;8.20;68.20
19214;DHT22;9741;51.020;5.304;2024-01-30T00:50:26;8.30;68.30
19214;DHT22;9741;51.020;5.304;2024-01-30T00:52:55;8.20;68.10
19214;DHT22;9741;51.020;5.304;2024-01-30T00:55:22;8.30;68.10
19214;DHT22;9741;51.020;5.304;2024-01-30T00:57:49;8.30;68.10
19214;DHT22;9741;51.020;5.304;2024-01-30T01:00:16;8.20;68.00
19214;DHT22;9741;51.020;5.304;2024-01-30T01:02:44;8.20;68.00
19214;DHT22;9741;51.020;5.304;2024-01-30T01:05:11;8.20;68.10
19214;DHT22;9741;51.020;5.304;2024-01-30T01:07:39;8.30;68.30
19214;DHT22;9741;51.020;5.304;2024-01-30T01:10:08;8.30;68.20
19214;DHT22;9741;51.020;5.304;2024-01-30T01:12:37;8.30;68.10
19214;DHT22;9741;51.020;5.304;2024-01-30T01:15:04;8.20;68.00
19214;DHT22;9741;51.020;5.304;2024-01-30T01:17:35;8.30;68.10
19214;DHT22;9741;51.020;5.304;2024-01-30T01:20:04;8.20;68.00
19214;DHT22;9741;51.020;5.304;2024-01-30T01:22:32;8.20;68.10
19214;DHT22;9741;51.020;5.304;2024-01-30T01:25:01;8.20;68.10
19214;DHT22;9741;51.020;5.304;2024-01-30T01:27:28;8.20;68.20
19214;DHT22;9741;51.020;5.304;2024-01-30T01:29:55;8.20;68.20
19214;DHT22;9741;51.020;5.304;2024-01-30T01:32:23;8.10;68.20
19214;DHT22;9741;51.020;5.304;2024-01-30T01:34:50;8.20;68.30
19214;DHT22;9741;51.020;5.304;2024-01-30T01:37:17;8.10;68.20
19214;DHT22;9741;51.020;5.304;2024-01-30T01:39:44;8.10;68.20
19214;DHT22;9741;51.020;5.304;2024-01-30T01:42:12;8.10;68.30
19214;DHT22;9741;51.020;5.304;2024-01-30T01:44:39;8.10;68.40
19214;DHT22;9741;51.020;5.304;2024-01-30T01:47:06;8.10;68.90
19214;DHT22;9741;51.020;5.304;2024-01-30T01:49:35;8.00;68.30
19214;DHT22;9741;51.020;5.304;2024-01-30T01:52:03;8.00;68.30
19214;DHT22;9741;51.020;5.304;2024-01-30T01:54:31;8.00;68.30
19214;DHT22;9741;51.020;5.304;2024-01-30T01:56:58;8.00;68.30
19214;DHT22;9741;51.020;5.304;2024-01-30T01:59:27;8.00;68.30
19214;DHT22;9741;51.020;5.304;2024-01-30T02:01:55;8.00;68.30
19214;DHT22;9741;51.020;5.304;2024-01-30T02:04:23;8.00;68.30
19214;DHT22;9741;51.020;5.304;2024-01-30T02:06:50;8.00;68.40
19214;DHT22;9741;51.020;5.304;2024-01-30T02:09:18;8.00;68.40
19214;DHT22;9741;51.020;5.304;2024-01-30T02:11:46;8.00;68.50
19214;DHT22;9741;51.020;5.304;2024-01-30T02:14:13;8.00;68.50
19214;DHT22;9741;51.020;5.304;2024-01-30T02:16:41;8.00;68.50
19214;DHT22;9741;51.020;5.304;2024-01-30T02:19:08;8.10;68.60
19214;DHT22;9741;51.020;5.304;2024-01-30T02:21:36;8.10;68.60
19214;DHT22;9741;51.020;5.304;2024-01-30T02:24:04;8.20;68.70
19214;DHT22;9741;51.020;5.304;2024-01-30T02:26:32;8.20;68.60
19214;DHT22;9741;51.020;5.304;2024-01-30T02:28:58;8.30;68.70
19214;DHT22;9741;51.020;5.304;2024-01-30T02:31:26;8.30;68.60
19214;DHT22;9741;51.020;5.304;2024-01-30T02:33:52;8.30;68.60
19214;DHT22;9741;51.020;5.304;2024-01-30T02:36:21;8.40;68.60
19214;DHT22;9741;51.020;5.304;2024-01-30T02:38:49;8.40;68.60
19214;DHT22;9741;51.020;5.304;2024-01-30T02:41:16;8.40;68.60
19214;DHT22;9741;51.020;5.304;2024-01-30T02:43:43;8.40;68.60
19214;DHT22;9741;51.020;5.304;2024-01-30T02:46:10;8.30;68.50
19214;DHT22;9741;51.020;5.304;2024-01-30T02:48:37;8.30;68.50
19214;DHT22;9741;51.020;5.304;2024-01-30T02:51:04;8.30;68.50
19214;DHT22;9741;51.020;5.304;2024-01-30T02:53:32;8.30;68.50
19214;DHT22;9741;51.020;5.304;2024-01-30T02:56:00;8.20;68.30
19214;DHT22;9741;51.020;5.304;2024-01-30T02:58:27;8.10;68.20
19214;DHT22;9741;51.020;5.304;2024-01-30T03:00:56;8.10;68.40
19214;DHT22;9741;51.020;5.304;2024-01-30T03:03:22;8.00;68.40
19214;DHT22;9741;51.020;5.304;2024-01-30T03:05:49;8.00;68.50
19214;DHT22;9741;51.020;5.304;2024-01-30T03:08:16;8.00;68.60
19214;DHT22;9741;51.020;5.304;2024-01-30T03:10:43;8.00;68.60
19214;DHT22;9741;51.020;5.304;2024-01-30T03:13:11;8.00;68.60
19214;DHT22;9741;51.020;5.304;2024-01-30T03:15:38;8.00;68.70
19214;DHT22;9741;51.020;5.304;2024-01-30T03:18:05;8.10;68.80
19214;DHT22;9741;51.020;5.304;2024-01-30T03:20:33;8.10;68.70
19214;DHT22;9741;51.020;5.304;2024-01-30T03:23:00;8.20;68.90
19214;DHT22;9741;51.020;5.304;2024-01-30T03:25:27;8.30;69.00
19214;DHT22;9741;51.020;5.304;2024-01-30T03:27:55;8.30;68.80
19214;DHT22;9741;51.020;5.304;2024-01-30T03:30:24;8.40;68.80
19214;DHT22;9741;51.020;5.304;2024-01-30T03:32:51;8.40;68.80
19214;DHT22;9741;51.020;5.304;2024-01-30T03:35:18;8.40;68.70
19214;DHT22;9741;51.020;5.304;2024-01-30T03:37:45;8.50;68.80
19214;DHT22;9741;51.020;5.304;2024-01-30T03:40:13;8.50;68.80
19214;DHT22;9741;51.020;5.304;2024-01-30T03:42:40;8.50;68.80
19214;DHT22;9741;51.020;5.304;2024-01-30T03:45:08;8.50;68.80
19214;DHT22;9741;51.020;5.304;2024-01-30T03:47:36;8.50;68.80
19214;DHT22;9741;51.020;5.304;2024-01-30T03:50:04;8.50;68.80
19214;DHT22;9741;51.020;5.304;2024-01-30T03:52:31;8.50;68.80
19214;DHT22;9741;51.020;5.304;2024-01-30T03:54:58;8.40;68.60
19214;DHT22;9741;51.020;5.304;2024-01-30T03:57:25;8.40;68.60
19214;DHT22;9741;51.020;5.304;2024-01-30T03:59:52;8.30;68.60
19214;DHT22;9741;51.020;5.304;2024-01-30T04:02:21;8.30;68.60
19214;DHT22;9741;51.020;5.304;2024-01-30T04:04:49;8.30;68.60
19214;DHT22;9741;51.020;5.304;2024-01-30T04:07:16;8.20;68.50
19214;DHT22;9741;51.020;5.304;2024-01-30T04:09:43;8.20;68.50
19214;DHT22;9741;51.020;5.304;2024-01-30T04:12:10;8.10;68.50
19214;DHT22;9741;51.020;5.304;2024-01-30T04:14:38;8.10;68.50
19214;DHT22;9741;51.020;5.304;2024-01-30T04:17:05;8.10;68.50
19214;DHT22;9741;51.020;5.304;2024-01-30T04:19:31;8.00;68.40
19214;DHT22;9741;51.020;5.304;2024-01-30T04:22:00;7.90;68.30
19214;DHT22;9741;51.020;5.304;2024-01-30T04:24:26;7.90;68.30
19214;DHT22;9741;51.020;5.304;2024-01-30T04:26:54;7.80;68.20
19214;DHT22;9741;51.020;5.304;2024-01-30T04:29:21;7.80;68.40
19214;DHT22;9741;51.020;5.304;2024-01-30T04:31:49;7.80;68.40
19214;DHT22;9741;51.020;5.304;2024-01-30T04:34:16;7.80;68.40
19214;DHT22;9741;51.020;5.304;2024-01-30T04:36:44;7.80;68.50
19214;DHT22;9741;51.020;5.304;2024-01-30T04:39:12;7.80;68.50
19214;DHT22;9741;51.020;5.304;2024-01-30T04:41:39;7.90;68.70
19214;DHT22;9741;51.020;5.304;2024-01-30T04:44:06;7.90;68.70
19214;DHT22;9741;51.020;5.304;2024-01-30T04:46:33;7.90;68.60
19214;DHT22;9741;51.020;5.304;2024-01-30T04:49:00;8.00;68.70
19214;DHT22;9741;51.020;5.304;2024-01-30T04:51:27;7.90;68.60
19214;DHT22;9741;51.020;5.304;2024-01-30T04:53:55;7.90;68.50
19214;DHT22;9741;51.020;5.304;2024-01-30T04:56:23;7.90;68.50
19214;DHT22;9741;51.020;5.304;2024-01-30T04:58:50;7.90;68.40
19214;DHT22;9741;51.020;5.304;2024-01-30T05:01:17;7.90;68.50
19214;DHT22;9741;51.020;5.304;2024-01-30T05:03:44;7.90;68.60
19214;DHT22;9741;51.020;5.304;2024-01-30T05:06:11;8.00;68.70
19214;DHT22;9741;51.020;5.304;2024-01-30T05:08:38;8.00;68.80
19214;DHT22;9741;51.020;5.304;2024-01-30T05:11:05;8.10;68.90
19214;DHT22;9741;51.020;5.304;2024-01-30T05:13:34;8.10;68.90
19214;DHT22;9741;51.020;5.304;2024-01-30T05:16:02;8.20;68.90
19214;DHT22;9741;51.020;5.304;2024-01-30T05:18:29;8.30;69.00
19214;DHT22;9741;51.020;5.304;2024-01-30T05:20:56;8.30;69.00
19214;DHT22;9741;51.020;5.304;2024-01-30T05:23:23;8.40;69.10
19214;DHT22;9741;51.020;5.304;2024-01-30T05:25:50;8.40;69.10
19214;DHT22;9741;51.020;5.304;2024-01-30T05:28:17;8.50;69.10
19214;DHT22;9741;51.020;5.304;2024-01-30T05:30:45;8.50;69.10
19214;DHT22;9741;51.020;5.304;2024-01-30T05:33:12;8.60;69.20
19214;DHT22;9741;51.020;5.304;2024-01-30T05:35:39;8.60;69.10
19214;DHT22;9741;51.020;5.304;2024-01-30T05:38:06;8.60;69.10
19214;DHT22;9741;51.020;5.304;2024-01-30T05:40:33;8.70;69.20
19214;DHT22;9741;51.020;5.304;2024-01-30T05:42:59;8.70;69.20
19214;DHT22;9741;51.020;5.304;2024-01-30T05:45:28;8.70;69.30
19214;DHT22;9741;51.020;5.304;2024-01-30T05:47:56;8.80;69.40
19214;DHT22;9741;51.020;5.304;2024-01-30T05:50:23;8.80;69.40
19214;DHT22;9741;51.020;5.304;2024-01-30T05:52:51;8.90;69.50
19214;DHT22;9741;51.020;5.304;2024-01-30T05:55:18;9.00;69.60
19214;DHT22;9741;51.020;5.304;2024-01-30T05:57:45;9.10;69.70
19214;DHT22;9741;51.020;5.304;2024-01-30T06:00:13;9.10;69.70
19214;DHT22;9741;51.020;5.304;2024-01-30T06:02:40;9.20;69.70
19214;DHT22;9741;51.020;5.304;2024-01-30T06:05:09;9.20;69.70
19214;DHT22;9741;51.020;5.304;2024-01-30T06:07:35;9.30;69.80
19214;DHT22;9741;51.020;5.304;2024-01-30T06:10:03;9.30;70.30
19214;DHT22;9741;51.020;5.304;2024-01-30T06:12:30;9.40;69.90
19214;DHT22;9741;51.020;5.304;2024-01-30T06:14:57;9.40;69.80
19214;DHT22;9741;51.020;5.304;2024-01-30T06:17:24;9.50;69.90
19214;DHT22;9741;51.020;5.304;2024-01-30T06:19:56;9.50;69.90
19214;DHT22;9741;51.020;5.304;2024-01-30T06:22:25;9.50;69.90
19214;DHT22;9741;51.020;5.304;2024-01-30T06:24:51;9.60;70.00
19214;DHT22;9741;51.020;5.304;2024-01-30T06:27:20;9.60;70.00
19214;DHT22;9741;51.020;5.304;2024-01-30T06:29:47;9.60;70.00
19214;DHT22;9741;51.020;5.304;2024-01-30T06:32:14;9.60;70.00
19214;DHT22;9741;51.020;5.304;2024-01-30T06:34:41;9.60;70.00
19214;DHT22;9741;51.020;5.304;2024-01-30T06:37:09;9.60;70.00
19214;DHT22;9741;51.020;5.304;2024-01-30T06:39:38;9.70;70.10
19214;DHT22;9741;51.020;5.304;2024-01-30T06:42:05;9.70;70.00
19214;DHT22;9741;51.020;5.304;2024-01-30T06:44:32;9.70;70.00
19214;DHT22;9741;51.020;5.304;2024-01-30T06:46:59;9.70;70.00
19214;DHT22;9741;51.020;5.304;2024-01-30T06:49:26;9.70;70.00
19214;DHT22;9741;51.020;5.304;2024-01-30T06:51:52;9.80;70.10
19214;DHT22;9741;51.020;5.304;2024-01-30T06:54:21;9.80;70.10
19214;DHT22;9741;51.020;5.304;2024-01-30T06:56:49;9.80;70.10
19214;DHT22;9741;51.020;5.304;2024-01-30T06:59:16;9.80;70.00
19214;DHT22;9741;51.020;5.304;2024-01-30T07:01:43;9.70;69.90
19214;DHT22;9741;51.020;5.304;2024-01-30T07:04:10;9.70;69.90
19214;DHT22;9741;51.020;5.304;2024-01-30T07:06:37;9.80;70.00
19214;DHT22;9741;51.020;5.304;2024-01-30T07:09:04;9.80;70.00
19214;DHT22;9741;51.020;5.304;2024-01-30T07:11:31;9.80;70.00
19214;DHT22;9741;51.020;5.304;2024-01-30T07:13:59;9.90;70.10
19214;DHT22;9741;51.020;5.304;2024-01-30T07:16:29;9.90;70.10
19214;DHT22;9741;51.020;5.304;2024-01-30T07:18:56;9.90;70.00
19214;DHT22;9741;51.020;5.304;2024-01-30T07:21:23;9.90;70.00
19214;DHT22;9741;51.020;5.304;2024-01-30T07:23:55;9.90;70.50
19214;DHT22;9741;51.020;5.304;2024-01-30T07:26:22;9.90;69.90
19214;DHT22;9741;51.020;5.304;2024-01-30T07:28:49;10.00;69.00
19214;DHT22;9741;51.020;5.304;2024-01-30T07:31:23;10.00;69.00
19214;DHT22;9741;51.020;5.304;2024-01-30T07:33:49;10.00;68.90
19214;DHT22;9741;51.020;5.304;2024-01-30T07:36:18;10.00;68.90
19214;DHT22;9741;51.020;5.304;2024-01-30T07:38:46;10.00;68.90
19214;DHT22;9741;51.020;5.304;2024-01-30T07:41:12;10.00;69.00
19214;DHT22;9741;51.020;5.304;2024-01-30T07:43:39;10.10;69.10
19214;DHT22;9741;51.020;5.304;2024-01-30T07:46:06;10.10;69.10
19214;DHT22;9741;51.020;5.304;2024-01-30T07:48:35;10.10;69.10
19214;DHT22;9741;51.020;5.304;2024-01-30T07:51:02;10.20;69.10
19214;DHT22;9741;51.020;5.304;2024-01-30T07:53:29;10.20;69.10
19214;DHT22;9741;51.020;5.304;2024-01-30T07:55:56;10.30;69.10
19214;DHT22;9741;51.020;5.304;2024-01-30T07:58:23;10.40;69.20
19214;DHT22;9741;51.020;5.304;2024-01-30T08:00:52;10.40;69.20
19214;DHT22;9741;51.020;5.304;2024-01-30T08:03:23;10.50;69.30
19214;DHT22;9741;51.020;5.304;2024-01-30T08:05:52;10.60;69.90
19214;DHT22;9741;51.020;5.304;2024-01-30T08:08:20;10.60;69.30
19214;DHT22;9741;51.020;5.304;2024-01-30T08:10:47;10.60;69.20
19214;DHT22;9741;51.020;5.304;2024-01-30T08:13:15;10.70;69.30
19214;DHT22;9741;51.020;5.304;2024-01-30T08:15:42;10.70;69.20
19214;DHT22;9741;51.020;5.304;2024-01-30T08:18:09;10.80;69.30
19214;DHT22;9741;51.020;5.304;2024-01-30T08:20:36;10.90;69.30
19214;DHT22;9741;51.020;5.304;2024-01-30T08:23:04;10.90;69.20
19214;DHT22;9741;51.020;5.304;2024-01-30T08:25:31;11.00;69.30
19214;DHT22;9741;51.020;5.304;2024-01-30T08:27:58;11.10;69.30
19214;DHT22;9741;51.020;5.304;2024-01-30T08:30:25;11.20;69.30
19214;DHT22;9741;51.020;5.304;2024-01-30T08:32:52;11.30;69.20
19214;DHT22;9741;51.020;5.304;2024-01-30T08:35:21;11.30;69.60
19214;DHT22;9741;51.020;5.304;2024-01-30T08:37:48;11.40;69.00
19214;DHT22;9741;51.020;5.304;2024-01-30T08:40:16;11.40;68.80
19214;DHT22;9741;51.020;5.304;2024-01-30T08:42:44;11.40;68.80
19214;DHT22;9741;51.020;5.304;2024-01-30T08:45:11;11.50;68.90
19214;DHT22;9741;51.020;5.304;2024-01-30T08:47:38;11.60;68.90
19214;DHT22;9741;51.020;5.304;2024-01-30T08:50:06;11.70;68.90
19214;DHT22;9741;51.020;5.304;2024-01-30T08:52:33;11.80;68.80
19214;DHT22;9741;51.020;5.304;2024-01-30T08:55:00;11.90;68.70
19214;DHT22;9741;51.020;5.304;2024-01-30T08:57:28;11.90;68.50
19214;DHT22;9741;51.020;5.304;2024-01-30T08:59:56;12.00;69.00
19214;DHT22;9741;51.020;5.304;2024-01-30T09:02:23;12.00;68.30
19214;DHT22;9741;51.020;5.304;2024-01-30T09:04:49;12.00;68.20
19214;DHT22;9741;51.020;5.304;2024-01-30T09:07:16;12.10;68.10
19214;DHT22;9741;51.020;5.304;2024-01-30T09:09:43;12.10;68.00
19214;DHT22;9741;51.020;5.304;2024-01-30T09:12:11;12.20;67.90
19214;DHT22;9741;51.020;5.304;2024-01-30T09:14:39;12.30;67.90
19214;DHT22;9741;51.020;5.304;2024-01-30T09:17:07;12.30;67.70
19214;DHT22;9741;51.020;5.304;2024-01-30T09:19:34;12.30;67.60
19214;DHT22;9741;51.020;5.304;2024-01-30T09:22:01;12.30;67.50
19214;DHT22;9741;51.020;5.304;2024-01-30T09:24:31;12.30;67.40
19214;DHT22;9741;51.020;5.304;2024-01-30T09:26:57;12.30;67.30
19214;DHT22;9741;51.020;5.304;2024-01-30T09:29:24;12.40;67.30
19214;DHT22;9741;51.020;5.304;2024-01-30T09:31:55;12.40;67.20
19214;DHT22;9741;51.020;5.304;2024-01-30T09:34:22;12.40;67.20
19214;DHT22;9741;51.020;5.304;2024-01-30T09:36:49;12.40;67.10
19214;DHT22;9741;51.020;5.304;2024-01-30T09:39:16;12.40;67.10
19214;DHT22;9741;51.020;5.304;2024-01-30T09:41:48;12.50;67.10
19214;DHT22;9741;51.020;5.304;2024-01-30T09:44:16;12.50;67.10
19214;DHT22;9741;51.020;5.304;2024-01-30T09:46:43;12.60;67.10
19214;DHT22;9741;51.020;5.304;2024-01-30T09:49:14;12.60;66.90
19214;DHT22;9741;51.020;5.304;2024-01-30T09:51:43;12.70;66.90
19214;DHT22;9741;51.020;5.304;2024-01-30T09:54:11;12.70;66.80
19214;DHT22;9741;51.020;5.304;2024-01-30T09:56:43;12.80;66.80
19214;DHT22;9741;51.020;5.304;2024-01-30T09:59:10;13.00;66.90
19214;DHT22;9741;51.020;5.304;2024-01-30T10:01:40;13.10;66.80
19214;DHT22;9741;51.020;5.304;2024-01-30T10:04:07;13.30;66.80
19214;DHT22;9741;51.020;5.304;2024-01-30T10:06:37;13.40;66.60
19214;DHT22;9741;51.020;5.304;2024-01-30T10:09:05;13.50;66.40
19214;DHT22;9741;51.020;5.304;2024-01-30T10:11:31;13.60;66.20
19214;DHT22;9741;51.020;5.304;2024-01-30T10:13:59;13.70;66.10
19214;DHT22;9741;51.020;5.304;2024-01-30T10:16:28;13.80;66.10
19214;DHT22;9741;51.020;5.304;2024-01-30T10:18:55;13.90;65.90
19214;DHT22;9741;51.020;5.304;2024-01-30T10:21:22;14.00;65.70
19214;DHT22;9741;51.020;5.304;2024-01-30T10:23:51;14.00;65.50
19214;DHT22;9741;51.020;5.304;2024-01-30T10:26:20;14.10;65.40
19214;DHT22;9741;51.020;5.304;2024-01-30T10:28:48;14.00;65.20
19214;DHT22;9741;51.020;5.304;2024-01-30T10:31:17;14.00;65.10
19214;DHT22;9741;51.020;5.304;2024-01-30T10:33:44;14.00;65.10
19214;DHT22;9741;51.020;5.304;2024-01-30T10:36:13;13.90;65.00
19214;DHT22;9741;51.020;5.304;2024-01-30T10:38:42;13.90;65.00
19214;DHT22;9741;51.020;5.304;2024-01-30T10:41:11;13.90;65.10
19214;DHT22;9741;51.020;5.304;2024-01-30T10:43:51;13.90;65.00
19214;DHT22;9741;51.020;5.304;2024-01-30T10:46:28;13.90;65.00
19214;DHT22;9741;51.020;5.304;2024-01-30T10:48:57;13.90;65.00
19214;DHT22;9741;51.020;5.304;2024-01-30T10:51:24;14.00;65.00
19214;DHT22;9741;51.020;5.304;2024-01-30T10:53:53;14.00;65.00
19214;DHT22;9741;51.020;5.304;2024-01-30T10:56:22;14.00;64.90
19214;DHT22;9741;51.020;5.304;2024-01-30T10:58:50;13.90;64.80
19214;DHT22;9741;51.020;5.304;2024-01-30T11:01:18;13.90;64.80
19214;DHT22;9741;51.020;5.304;2024-01-30T11:03:46;13.80;64.70
19214;DHT22;9741;51.020;5.304;2024-01-30T11:06:14;13.80;64.80
19214;DHT22;9741;51.020;5.304;2024-01-30T11:08:44;13.80;64.90
19214;DHT22;9741;51.020;5.304;2024-01-30T11:11:11;13.70;64.90
19214;DHT22;9741;51.020;5.304;2024-01-30T11:13:40;13.70;64.90
19214;DHT22;9741;51.020;5.304;2024-01-30T11:16:11;13.70;64.90
19214;DHT22;9741;51.020;5.304;2024-01-30T11:18:39;13.70;65.00
19214;DHT22;9741;51.020;5.304;2024-01-30T11:21:06;13.60;64.90
19214;DHT22;9741;51.020;5.304;2024-01-30T11:23:34;13.70;65.10
19214;DHT22;9741;51.020;5.304;2024-01-30T11:26:02;13.70;65.10
19214;DHT22;9741;51.020;5.304;2024-01-30T11:28:37;13.80;65.10
19214;DHT22;9741;51.020;5.304;2024-01-30T11:31:06;13.80;65.10
19214;DHT22;9741;51.020;5.304;2024-01-30T11:33:36;13.90;65.20
19214;DHT22;9741;51.020;5.304;2024-01-30T11:36:04;13.90;65.10
19214;DHT22;9741;51.020;5.304;2024-01-30T11:38:32;14.10;65.30
19214;DHT22;9741;51.020;5.304;2024-01-30T11:41:00;14.20;65.10
19214;DHT22;9741;51.020;5.304;2024-01-30T11:43:28;14.30;65.00
19214;DHT22;9741;51.020;5.304;2024-01-30T11:45:55;14.40;64.90
19214;DHT22;9741;51.020;5.304;2024-01-30T11:48:23;14.40;65.10
19214;DHT22;9741;51.020;5.304;2024-01-30T11:50:50;14.50;64.70
19214;DHT22;9741;51.020;5.304;2024-01-30T11:53:17;14.50;64.60
19214;DHT22;9741;51.020;5.304;2024-01-30T11:55:50;14.50;64.40
19214;DHT22;9741;51.020;5.304;2024-01-30T11:58:17;14.40;64.20
19214;DHT22;9741;51.020;5.304;2024-01-30T12:00:53;14.40;64.30
19214;DHT22;9741;51.020;5.304;2024-01-30T12:03:23;14.40;64.30
19214;DHT22;9741;51.020;5.304;2024-01-30T12:05:55;14.30;64.30
19214;DHT22;9741;51.020;5.304;2024-01-30T12:08:22;14.20;64.20
19214;DHT22;9741;51.020;5.304;2024-01-30T12:10:55;14.10;64.20
19214;DHT22;9741;51.020;5.304;2024-01-30T12:13:22;14.00;64.20
19214;DHT22;9741;51.020;5.304;2024-01-30T12:15:52;13.90;64.20
19214;DHT22;9741;51.020;5.304;2024-01-30T12:18:19;13.90;64.30
19214;DHT22;9741;51.020;5.304;2024-01-30T12:20:56;13.80;64.30
19214;DHT22;9741;51.020;5.304;2024-01-30T12:23:24;13.80;64.40
19214;DHT22;9741;51.020;5.304;2024-01-30T12:25:52;13.70;64.40
19214;DHT22;9741;51.020;5.304;2024-01-30T12:28:19;13.70;64.50
19214;DHT22;9741;51.020;5.304;2024-01-30T12:30:46;13.70;64.50
19214;DHT22;9741;51.020;5.304;2024-01-30T12:33:16;13.70;64.50
19214;DHT22;9741;51.020;5.304;2024-01-30T12:35:47;13.80;64.40
19214;DHT22;9741;51.020;5.304;2024-01-30T12:38:14;13.80;64.40
19214;DHT22;9741;51.020;5.304;2024-01-30T12:40:41;13.80;64.20
19214;DHT22;9741;51.020;5.304;2024-01-30T12:43:08;13.90;64.20
19214;DHT22;9741;51.020;5.304;2024-01-30T12:45:36;14.00;64.10
19214;DHT22;9741;51.020;5.304;2024-01-30T12:48:03;14.10;64.00
19214;DHT22;9741;51.020;5.304;2024-01-30T12:50:30;14.10;63.80
19214;DHT22;9741;51.020;5.304;2024-01-30T12:52:58;14.20;63.80
19214;DHT22;9741;51.020;5.304;2024-01-30T12:55:26;14.20;63.60
19214;DHT22;9741;51.020;5.304;2024-01-30T12:57:57;14.30;63.50
19214;DHT22;9741;51.020;5.304;2024-01-30T13:00:24;14.30;63.30
19214;DHT22;9741;51.020;5.304;2024-01-30T13:02:51;14.30;62.90
19214;DHT22;9741;51.020;5.304;2024-01-30T13:05:18;14.30;62.60
19214;DHT22;9741;51.020;5.304;2024-01-30T13:07:45;14.30;62.50
19214;DHT22;9741;51.020;5.304;2024-01-30T13:10:14;14.30;62.20
19214;DHT22;9741;51.020;5.304;2024-01-30T13:12:40;14.30;62.00
19214;DHT22;9741;51.020;5.304;2024-01-30T13:15:08;14.30;61.90
19214;DHT22;9741;51.020;5.304;2024-01-30T13:17:36;14.30;61.70
19214;DHT22;9741;51.020;5.304;2024-01-30T13:20:04;14.30;61.50
19214;DHT22;9741;51.020;5.304;2024-01-30T13:22:36;14.40;61.40
19214;DHT22;9741;51.020;5.304;2024-01-30T13:25:04;14.40;61.20
19214;DHT22;9741;51.020;5.304;2024-01-30T13:27:36;14.40;60.90
19214;DHT22;9741;51.020;5.304;2024-01-30T13:30:04;14.20;60.50
19214;DHT22;9741;51.020;5.304;2024-01-30T13:32:34;14.10;60.40
19214;DHT22;9741;51.020;5.304;2024-01-30T13:35:01;13.90;60.20
19214;DHT22;9741;51.020;5.304;2024-01-30T13:37:29;13.80;60.00
19214;DHT22;9741;51.020;5.304;2024-01-30T13:39:56;13.60;59.80
19214;DHT22;9741;51.020;5.304;2024-01-30T13:42:23;13.50;60.20
19214;DHT22;9741;51.020;5.304;2024-01-30T13:44:51;13.40;59.60
19214;DHT22;9741;51.020;5.304;2024-01-30T13:47:18;13.40;59.50
19214;DHT22;9741;51.020;5.304;2024-01-30T13:49:47;13.30;59.50
19214;DHT22;9741;51.020;5.304;2024-01-30T13:52:14;13.30;59.50
19214;DHT22;9741;51.020;5.304;2024-01-30T13:54:41;13.20;59.10
19214;DHT22;9741;51.020;5.304;2024-01-30T13:57:07;13.20;58.80
19214;DHT22;9741;51.020;5.304;2024-01-30T13:59:35;13.00;58.40
19214;DHT22;9741;51.020;5.304;2024-01-30T14:02:03;12.90;58.10
19214;DHT22;9741;51.020;5.304;2024-01-30T14:04:31;12.90;58.10
19214;DHT22;9741;51.020;5.304;2024-01-30T14:06:58;12.80;58.10
19214;DHT22;9741;51.020;5.304;2024-01-30T14:09:25;12.70;57.90
19214;DHT22;9741;51.020;5.304;2024-01-30T14:11:54;12.70;57.90
19214;DHT22;9741;51.020;5.304;2024-01-30T14:14:24;12.70;57.80
19214;DHT22;9741;51.020;5.304;2024-01-30T14:16:51;12.70;57.80
19214;DHT22;9741;51.020;5.304;2024-01-30T14:19:22;12.80;57.70
19214;DHT22;9741;51.020;5.304;2024-01-30T14:21:49;12.80;57.60
19214;DHT22;9741;51.020;5.304;2024-01-30T14:24:16;12.90;57.50
19214;DHT22;9741;51.020;5.304;2024-01-30T14:26:42;12.90;57.40
19214;DHT22;9741;51.020;5.304;2024-01-30T14:29:09;13.00;57.30
19214;DHT22;9741;51.020;5.304;2024-01-30T14:31:36;13.00;57.20
19214;DHT22;9741;51.020;5.304;2024-01-30T14:34:03;13.00;57.10
19214;DHT22;9741;51.020;5.304;2024-01-30T14:36:32;13.00;57.10
19214;DHT22;9741;51.020;5.304;2024-01-30T14:39:01;13.00;57.10
19214;DHT22;9741;51.020;5.304;2024-01-30T14:41:28;13.00;57.60
19214;DHT22;9741;51.020;5.304;2024-01-30T14:43:55;13.00;56.90
19214;DHT22;9741;51.020;5.304;2024-01-30T14:46:25;13.00;56.90
19214;DHT22;9741;51.020;5.304;2024-01-30T14:48:53;13.00;56.90
19214;DHT22;9741;51.020;5.304;2024-01-30T14:51:23;13.00;56.80
19214;DHT22;9741;51.020;5.304;2024-01-30T14:53:51;13.00;56.80
19214;DHT22;9741;51.020;5.304;2024-01-30T14:56:18;13.00;56.70
19214;DHT22;9741;51.020;5.304;2024-01-30T14:58:46;13.00;56.70
19214;DHT22;9741;51.020;5.304;2024-01-30T15:01:13;13.00;56.60
19214;DHT22;9741;51.020;5.304;2024-01-30T15:03:40;12.90;56.40
19214;DHT22;9741;51.020;5.304;2024-01-30T15:06:09;12.90;56.50
19214;DHT22;9741;51.020;5.304;2024-01-30T15:08:35;12.90;56.40
19214;DHT22;9741;51.020;5.304;2024-01-30T15:11:04;12.90;56.40
19214;DHT22;9741;51.020;5.304;2024-01-30T15:13:31;12.80;56.40
19214;DHT22;9741;51.020;5.304;2024-01-30T15:15:58;12.80;56.40
19214;DHT22;9741;51.020;5.304;2024-01-30T15:18:25;12.80;56.30
19214;DHT22;9741;51.020;5.304;2024-01-30T15:20:52;12.70;56.20
19214;DHT22;9741;51.020;5.304;2024-01-30T15:23:21;12.70;56.30
19214;DHT22;9741;51.020;5.304;2024-01-30T15:25:48;12.60;56.20
19214;DHT22;9741;51.020;5.304;2024-01-30T15:28:17;12.60;56.30
19214;DHT22;9741;51.020;5.304;2024-01-30T15:30:49;12.50;56.20
19214;DHT22;9741;51.020;5.304;2024-01-30T15:33:18;12.50;56.30
19214;DHT22;9741;51.020;5.304;2024-01-30T15:35:45;12.40;56.30
19214;DHT22;9741;51.020;5.304;2024-01-30T15:38:12;12.40;56.40
19214;DHT22;9741;51.020;5.304;2024-01-30T15:40:40;12.30;56.40
19214;DHT22;9741;51.020;5.304;2024-01-30T15:43:07;12.30;56.50
19214;DHT22;9741;51.020;5.304;2024-01-30T15:45:35;12.30;56.50
19214;DHT22;9741;51.020;5.304;2024-01-30T15:48:02;12.20;56.50
19214;DHT22;9741;51.020;5.304;2024-01-30T15:50:32;12.10;56.60
19214;DHT22;9741;51.020;5.304;2024-01-30T15:52:59;12.00;56.60
19214;DHT22;9741;51.020;5.304;2024-01-30T15:55:29;12.00;56.70